メルボルン の空港の天気 - METARとTAF

メルボルン空港 ( YMML / MEL ) - オーストラリア ビクトリア州、Melbourne Airport
飛行場実況気象(Metar)
観測時間02/02 02:00 AEDT (02/01 15:00 UTC)
風向・風速北北西 2m/s
視程10km以上
天気現象
少しの雲 雲底高度 1160m
全天の8割程度の雲 雲底高度 2130m
気温12℃
湿度77%
気圧1002hPa
METARYMML 011500Z 34003KT 9999 FEW038 BKN070 12/08 Q1002 RF00.0/000.0
過去の天気等 Google飛行場航空写真 Wunderground天気予報

過去48時間のMETAR

飛行場予報(TAF)
発表時間: 2/02 01:06 AEDT (2/01 14:06 UTC)
予報対象時間: 2日2時 AEDT ~ 3日5時 AEDT
風向・風速西北西 3m/s
視程10km以上
全天の4割程度の雲 雲底高度 1070m
2日12時 AEDT から
風向・風速北西 10m/s 瞬間風速 18m/s
視程10km以上
なし
2日17時 AEDT から
風向・風速西北西 7m/s
視程10km以上
天気現象弱いしゅう雨
全天の4割程度の雲 雲底高度 760m
全天の8割程度の雲 雲底高度 1520m
2日21時 AEDT から
風向・風速西北西 6m/s
視程10km以上
天気現象運行に影響にある天気現象が終了
全天の4割程度の雲 雲底高度 910m
TAF YMML 011406Z 0115/0218 30006KT 9999 SCT035
FM020100 31020G35KT CAVOK
FM020600 29014KT 9999 -SHRA SCT025 BKN050
FM021000 30012KT 9999 NSW SCT030 INTER 0206/0209 28020G35KT 4000 SHRA SCT015